Latest Weather Observations for Coondewanna

IDW60801

Issued at 9:02 am WST Tuesday 28 July 2015 (issued every 30 minutes, with the page automatically refreshed every 10 minutes)

About weather observations | Map of weather stations | Latest weather observations for WA | Other Formats
Station Details ID: 505051 Name: COONDEWANNA Lat: -22.96 Lon: 118.81 Height: 697.63 m
Data from the previous 72 hours. | See also: Recent months for locations in Western Australia
Date/Time
WST
Temp
°C
App
Temp
°C
Dew
Point
Rel
Hum
%
Delta-T
°C
Wind Press
QNH
hPa
Press
MSL
hPa
Rain
since 9 am
mm
Dir
 
Spd
km/h
Gust
km/h
Spd
kts
Gust
kts
28/09:00am 16.0 15.5 7.7 58 4.3 CALM 0 0 0 0 1026.8 1025.5 0.2
28/08:30am 13.0 11.5 7.0 67 3.0 ENE 4 7 2 4 1026.8 1025.5 0.2
28/08:00am 9.8 9.0 6.7 81 1.5 CALM 0 0 0 0 1026.6 1025.2 0.2
28/07:30am 8.2 7.4 6.3 88 0.9 CALM 0 0 0 0 1026.4 1025.0 0.2
28/07:00am 6.2 5.2 5.5 95 0.3 CALM 0 0 0 0 1026.2 1024.8 0.2
28/06:30am 5.9 4.8 5.2 95 0.3 CALM 0 0 0 0 1026.1 1024.7 0.2
28/06:00am 6.2 5.1 5.3 94 0.4 CALM 0 0 0 0 1025.9 1024.5 0.2
28/05:30am 6.0 4.9 5.1 94 0.4 CALM 0 0 0 0 1025.6 1024.3 0.2
28/05:00am 6.2 5.1 5.3 94 0.4 CALM 0 0 0 0 1025.5 1024.2 0.2
28/04:30am 6.0 4.9 5.1 94 0.4 CALM 0 0 0 0 1025.4 1024.1 0.2
28/04:00am 6.1 3.9 5.1 93 0.5 ENE 6 6 3 3 1025.6 1024.3 0.2
28/03:30am 6.3 5.2 5.1 92 0.5 CALM 0 0 0 0 1025.6 1024.3 0.2
28/03:00am 6.6 5.6 5.4 92 0.6 CALM 0 0 0 0 1025.9 1024.5 0.2
28/02:30am 7.1 5.0 5.9 92 0.6 ENE 6 9 3 5 1025.9 1024.5 0.2
28/02:00am 7.0 5.2 5.6 91 0.6 ENE 4 6 2 3 1026.0 1024.6 0.2
28/01:30am 7.6 6.6 5.6 87 0.9 CALM 0 0 0 0 1026.0 1024.6 0.2
28/01:00am 7.7 6.7 5.8 88 0.9 CALM 0 0 0 0 1026.2 1024.8 0.2
28/12:30am 9.1 7.0 5.7 79 1.6 ENE 6 9 3 5 1026.3 1024.9 0.2
28/12:00am 11.6 8.6 4.1 60 3.5 NE 9 11 5 6 1026.5 1025.1 0.2
 
Date/Time
WST
Temp
°C
App
Temp
°C
Dew
Point
Rel
Hum
%
Delta-T
°C
Wind Press
QNH
hPa
Press
MSL
hPa
Rain
since 9 am
mm
Dir
 
Spd
km/h
Gust
km/h
Spd
kts
Gust
kts
27/11:30pm 10.7 8.4 5.7 71 2.4 ENE 7 11 4 6 1026.8 1025.5 0.2
27/11:00pm 12.2 8.8 3.9 57 3.9 NE 11 13 6 7 1026.9 1025.6 0.2
27/10:30pm 13.2 9.0 3.6 52 4.5 ENE 15 19 8 10 1026.8 1025.5 0.2
27/10:00pm 12.8 9.4 4.0 55 4.1 NE 11 13 6 7 1026.6 1025.2 0.2
27/09:30pm 9.6 7.6 7.0 84 1.3 E 7 9 4 5 1026.5 1025.1 0.2
27/09:00pm 11.1 9.2 6.8 75 2.1 E 6 7 3 4 1026.6 1025.2 0.2
27/08:30pm 12.5 9.5 6.1 65 3.1 E 11 13 6 7 1026.5 1025.1 0.2
27/08:00pm 12.4 9.8 6.0 65 3.1 E 9 11 5 6 1026.3 1024.9 0.2
27/07:30pm 13.5 9.9 4.9 56 4.1 E 13 13 7 7 1026.2 1024.8 0.2
27/07:00pm 14.3 11.0 4.3 51 4.8 E 11 15 6 8 1025.9 1024.5 0.2
27/06:30pm 15.2 11.9 4.6 49 5.1 E 11 13 6 7 1025.4 1024.1 0.2
27/06:00pm 16.6 13.1 3.3 41 6.3 E 11 13 6 7 1025.1 1023.7 0.2
27/05:30pm 18.3 13.4 2.2 34 7.6 E 17 20 9 11 1024.8 1023.4 0.2
27/05:00pm 19.4 13.8 1.4 30 8.4 E 20 28 11 15 1024.7 1023.3 0.2
27/04:30pm 19.9 14.3 1.4 29 8.7 E 20 30 11 16 1024.5 1023.1 0.2
27/04:00pm 20.5 15.1 2.3 30 8.7 E 20 26 11 14 1024.4 1023.0 0.2
27/03:30pm 20.5 14.3 2.3 30 8.8 E 24 30 13 16 1024.5 1023.1 0.2
27/03:00pm 20.3 14.5 2.2 30 8.7 E 22 32 12 17 1024.5 1023.1 0.2
27/02:30pm 20.5 14.3 1.9 29 8.9 E 24 33 13 18 1024.7 1023.3 0.2
27/02:00pm 20.0 13.8 2.4 31 8.4 ENE 24 32 13 17 1024.9 1023.5 0.2
27/01:30pm 19.6 12.9 1.6 30 8.5 NE 26 32 14 17 1025.4 1024.1 0.0
27/01:00pm 19.5 14.0 1.9 31 8.3 ENE 20 28 11 15 1025.9 1024.5 0.0
27/12:30pm 19.3 13.6 3.1 34 7.9 E 22 28 12 15 1026.4 1025.0 0.0
27/12:00pm 18.9 13.8 3.9 37 7.3 E 20 30 11 16 1026.8 1025.5 0.0
27/11:30am 18.1 13.2 3.9 39 6.9 ENE 19 32 10 17 1027.3 1026.0 0.0
27/11:00am 17.1 12.1 4.4 43 6.2 E 20 30 11 16 1027.8 1026.4 0.0
27/10:30am 16.5 11.1 4.5 45 5.9 ENE 22 30 12 16 1028.4 1027.1 0.0
27/10:00am 15.5 10.7 4.8 49 5.2 E 19 28 10 15 1029.0 1027.6 0.0
27/09:30am 14.3 9.0 5.1 54 4.5 E 22 30 12 16 1029.2 1027.9 0.0
27/09:00am 13.3 7.7 5.5 59 3.8 E 24 32 13 17 1029.3 1028.0 0.0
27/08:30am 12.7 8.4 5.1 60 3.7 ENE 17 26 9 14 1029.1 1027.7 0.0
27/08:00am 11.4 8.1 4.8 64 3.1 NE 11 20 6 11 1028.8 1027.5 0.0
27/07:30am 8.9 7.8 5.3 78 1.7 CALM 0 6 0 3 1028.4 1027.1 0.0
27/07:00am 6.3 5.1 4.6 89 0.8 CALM 0 0 0 0 1027.9 1026.6 0.0
27/06:30am 5.5 4.2 4.0 90 0.7 CALM 0 0 0 0 1027.7 1026.3 0.0
27/06:00am 6.9 5.7 4.4 84 1.1 CALM 0 0 0 0 1027.6 1026.2 0.0
27/05:30am 8.3 5.8 4.7 78 1.7 NNE 7 11 4 6 1027.2 1025.9 0.0
27/05:00am 7.7 5.3 4.5 80 1.5 NE 6 11 3 6 1027.1 1025.8 0.0
27/04:30am 9.5 5.9 4.9 73 2.2 E 13 17 7 9 1027.1 1025.8 0.0
27/04:00am 9.7 5.7 4.9 72 2.2 ENE 15 20 8 11 1027.1 1025.8 0.0
27/03:30am 9.4 6.7 5.4 76 1.9 E 9 15 5 8 1027.3 1026.0 0.0
27/03:00am 6.9 5.0 4.9 87 0.9 WNW 4 9 2 5 1027.3 1026.0 0.0
27/02:30am 7.7 5.9 5.3 85 1.1 ENE 4 6 2 3 1027.3 1026.0 0.0
27/02:00am 6.4 4.8 4.7 89 0.8 WNW 2 7 1 4 1027.5 1026.1 0.0
27/01:30am 7.8 6.4 5.3 84 1.2 WNW 2 6 1 3 1027.7 1026.3 0.0
27/01:00am 8.6 6.8 5.5 81 1.4 WNW 4 7 2 4 1027.8 1026.4 0.0
27/12:30am 8.0 5.7 5.6 85 1.1 N 7 9 4 5 1027.9 1026.6 0.0
27/12:00am 8.4 6.2 5.3 81 1.4 NNW 6 9 3 5 1027.9 1026.6 0.0
 
Date/Time
WST
Temp
°C
App
Temp
°C
Dew
Point
Rel
Hum
%
Delta-T
°C
Wind Press
QNH
hPa
Press
MSL
hPa
Rain
since 9 am
mm
Dir
 
Spd
km/h
Gust
km/h
Spd
kts
Gust
kts
26/11:30pm 9.8 7.4 5.4 74 2.1 E 7 11 4 6 1028.0 1026.7 0.0
26/11:00pm 9.6 7.2 5.2 74 2.1 E 7 11 4 6 1028.0 1026.7 0.0
26/10:30pm 8.3 6.8 5.2 81 1.4 E 2 6 1 3 1027.9 1026.6 0.0
26/10:00pm 11.6 8.5 5.7 67 2.8 ESE 11 15 6 8 1027.9 1026.6 0.0
26/09:30pm 9.4 7.3 5.6 77 1.8 ESE 6 7 3 4 1028.0 1026.7 0.0
26/09:00pm 9.1 8.2 6.2 82 1.4 CALM 0 6 0 3 1027.9 1026.6 0.0
26/08:30pm 10.0 8.2 5.6 74 2.1 SE 4 6 2 3 1027.9 1026.6 0.0
26/08:00pm 11.0 8.8 5.5 69 2.6 SE 6 11 3 6 1027.5 1026.1 0.0
26/07:30pm 12.2 9.6 6.0 66 3.0 ESE 9 15 5 8 1027.2 1025.9 0.0
26/07:00pm 13.0 10.8 6.1 63 3.4 ESE 7 9 4 5 1026.9 1025.6 0.0
26/06:30pm 13.7 11.4 5.8 59 3.9 ESE 7 9 4 5 1026.6 1025.2 0.0
26/06:00pm 14.5 12.3 6.1 57 4.2 E 7 11 4 6 1026.2 1024.8 0.0
26/05:30pm 16.6 12.4 4.0 43 6.1 E 15 24 8 13 1025.5 1024.2 0.0
26/05:00pm 17.6 12.4 3.5 39 6.8 E 20 26 11 14 1025.2 1023.8 0.0
26/04:30pm 18.1 13.3 4.7 41 6.7 ESE 19 26 10 14 1024.9 1023.5 0.0
26/04:00pm 18.5 13.3 5.7 43 6.5 ESE 22 28 12 15 1024.7 1023.3 0.0
26/03:30pm 18.1 12.2 5.7 44 6.3 ESE 26 33 14 18 1024.6 1023.2 0.0
26/03:00pm 18.5 13.9 6.7 46 6.1 ESE 20 44 11 24 1024.8 1023.4 0.0
26/02:30pm 18.2 13.6 6.4 46 6.1 E 20 28 11 15 1025.1 1023.7 0.0
26/02:00pm 17.9 13.2 6.1 46 6.0 E 20 28 11 15 1025.3 1023.9 0.0
26/01:30pm 17.7 13.0 5.9 46 6.0 ESE 20 28 11 15 1025.2 1023.8 0.0
26/01:00pm 17.1 13.2 6.9 51 5.2 E 17 24 9 13 1025.5 1024.2 0.0
26/12:30pm 16.7 12.2 6.2 50 5.3 E 19 28 10 15 1026.2 1024.8 0.0
26/12:00pm 16.0 11.3 5.9 51 5.0 E 20 28 11 15 1026.7 1025.4 0.0
26/11:30am 15.5 10.5 4.8 49 5.2 E 20 28 11 15 1027.1 1025.8 0.0
26/11:00am 14.6 9.1 5.7 55 4.4 E 24 32 13 17 1027.6 1026.2 0.0
26/10:30am 14.0 8.1 5.6 57 4.1 E 26 32 14 17 1028.1 1026.8 0.0
26/10:00am 13.4 7.4 5.1 57 4.0 E 26 35 14 19 1028.2 1026.9 0.0
26/09:30am 12.5 5.0 4.5 58 3.8 ESE 33 44 18 24 1028.3 1027.0 0.0
26/09:00am 12.2 6.9 5.1 62 3.4 E 22 32 12 17 1028.3 1027.0 4.4
26/08:30am 11.4 6.4 4.6 63 3.2 E 20 26 11 14 1028.2 1026.9 4.4
26/08:00am 10.5 6.2 5.3 70 2.5 ESE 17 24 9 13 1027.5 1026.1 4.4
26/07:30am 9.0 6.9 5.9 81 1.5 E 6 11 3 6 1027.0 1025.7 4.4
26/07:00am 8.6 6.4 6.4 86 1.0 ESE 7 13 4 7 1027.1 1025.8 4.4
26/06:30am 8.4 6.3 6.5 88 0.9 ESE 7 7 4 4 1027.0 1025.7 4.4
26/06:00am 9.1 7.1 6.4 83 1.3 ESE 6 9 3 5 1026.7 1025.4 4.4
26/05:30am 9.2 7.3 6.6 84 1.3 SE 6 9 3 5 1026.6 1025.2 4.4
26/05:00am 9.1 7.3 7.1 87 1.0 ESE 6 7 3 4 1026.2 1024.8 4.4
26/04:30am 9.4 7.3 6.7 83 1.3 SE 7 13 4 7 1025.7 1024.4 4.4
26/04:00am 9.6 6.7 6.7 82 1.4 SE 11 17 6 9 1025.3 1023.9 4.4
26/03:30am 9.2 7.2 7.2 87 1.0 ESE 7 11 4 6 1025.0 1023.6 4.4
26/03:00am 9.4 7.3 6.8 84 1.3 ESE 7 13 4 7 1025.4 1024.1 4.4
26/02:30am 9.0 6.3 7.5 90 0.7 ENE 11 13 6 7 1025.4 1024.1 4.4
26/02:00am 9.5 6.5 7.9 90 0.8 E 13 17 7 9 1025.9 1024.5 4.4
26/01:38am 9.8 6.9 8.1 89 0.9 ESE 13 17 7 9 1026.2 1024.8 4.4
26/01:30am 9.9 7.5 8.5 91 0.7 ESE 11 17 6 9 1026.1 1024.7 4.4
26/01:19am 9.9 7.1 8.5 91 0.7 ESE 13 19 7 10 1026.3 1024.9 4.4
26/01:16am 10.0 7.2 8.6 91 0.7 ESE 13 19 7 10 1026.3 1024.9 4.4
26/01:00am 10.2 6.8 9.0 92 0.6 SE 17 22 9 12 1026.1 1024.7 4.4
26/12:30am 10.3 6.5 9.7 96 0.3 ESE 20 26 11 14 1026.2 1024.8 4.4
26/12:00am 10.2 6.3 9.4 95 0.4 ESE 20 24 11 13 1026.2 1024.8 4.4
 
Date/Time
WST
Temp
°C
App
Temp
°C
Dew
Point
Rel
Hum
%
Delta-T
°C
Wind Press
QNH
hPa
Press
MSL
hPa
Rain
since 9 am
mm
Dir
 
Spd
km/h
Gust
km/h
Spd
kts
Gust
kts
25/11:30pm 10.5 7.2 9.4 93 0.6 ESE 17 20 9 11 1026.4 1025.0 4.4
25/11:00pm 10.6 7.0 9.7 94 0.5 ESE 19 22 10 12 1026.1 1024.7 4.4
25/10:30pm 10.6 7.3 9.5 93 0.6 ESE 17 22 9 12 1026.2 1024.8 4.4
25/10:00pm 11.0 8.5 9.8 92 0.6 E 13 17 7 9 1026.5 1025.1 4.4
25/09:30pm 10.8 7.6 10.0 95 0.4 ESE 17 22 9 12 1026.2 1024.8 4.4
25/09:07pm 10.9 7.7 10.1 95 0.4 ESE 17 20 9 11 1026.2 1024.8 4.4
25/09:00pm 10.9 7.7 10.1 95 0.4 E 17 20 9 11 1026.2 1024.8 4.4
25/08:30pm 11.0 9.0 10.1 94 0.5 SE 11 17 6 9 1026.2 1024.8 4.4
25/08:17pm 11.1 10.1 10.3 95 0.4 SSE 6 11 3 6 1026.3 1024.9 4.4
25/08:00pm 11.1 9.5 10.2 94 0.5 SSE 9 13 5 7 1026.0 1024.6 4.2
25/07:42pm 11.2 8.9 10.4 95 0.4 SSE 13 17 7 9 1026.4 1025.0 4.0
25/07:30pm 11.1 8.4 10.2 94 0.5 ESE 15 20 8 11 1026.1 1024.7 4.0
25/07:04pm 11.2 8.5 10.3 94 0.5 ESE 15 19 8 10 1025.1 1023.7 3.8
25/07:00pm 11.3 8.6 10.4 94 0.5 E 15 19 8 10 1025.0 1023.6 3.8
25/06:30pm 11.9 10.9 11.0 94 0.5 SE 7 11 4 6 1024.9 1023.5 3.8
25/06:15pm 11.9 10.9 11.0 94 0.5 SE 7 13 4 7 1025.0 1023.6 3.6
25/06:12pm 11.9 10.5 10.8 93 0.6 SE 9 13 5 7 1025.0 1023.6 3.6
25/06:00pm 12.0 10.7 11.2 95 0.4 SE 9 13 5 7 1024.5 1023.1 3.4
25/05:30pm 12.0 11.1 11.2 95 0.4 SSE 7 9 4 5 1024.2 1022.9 3.2
25/05:04pm 12.1 11.2 11.2 94 0.5 ESE 7 11 4 6 1024.0 1022.6 2.6
25/05:00pm 12.1 11.2 11.2 94 0.5 E 7 11 4 6 1023.8 1022.4 2.6
25/04:30pm 12.1 10.4 11.2 94 0.5 SSE 11 13 6 7 1023.5 1022.1 2.4
25/04:19pm 12.1 10.3 11.0 93 0.6 SSE 11 13 6 7 1023.7 1022.3 2.2
25/04:00pm 12.2 11.4 10.9 92 0.7 ESE 6 9 3 5 1023.8 1022.4 2.2
25/03:30pm 12.2 10.8 10.9 92 0.7 ESE 9 11 5 6 1023.4 1022.0 2.0
25/03:00pm 12.0 10.2 10.7 92 0.7 ENE 11 15 6 8 1022.5 1021.1 2.0
25/02:42pm 12.1 9.6 11.0 93 0.6 E 15 19 8 10 1022.4 1021.0 2.0
25/02:30pm 12.1 9.1 10.8 92 0.7 E 17 20 9 11 1022.2 1020.8 2.0
25/02:00pm 12.4 10.6 10.8 90 0.9 S 11 15 6 8 1022.0 1020.6 2.0
25/01:30pm 12.5 10.7 10.7 89 1.0 ESE 11 17 6 9 1022.3 1020.9 2.0
25/01:26pm 12.8 11.2 11.4 91 0.8 E 11 17 6 9 1022.2 1020.8 2.0
25/01:00pm 11.6 9.3 10.5 93 0.6 ENE 13 17 7 9 1023.0 1021.6 2.0
25/12:46pm 11.2 9.2 10.1 93 0.6 E 11 17 6 9 1023.3 1021.9 2.0
25/12:30pm 11.0 9.7 9.9 93 0.6 E 7 9 4 5 1024.2 1022.9 1.8
25/12:25pm 10.9 9.6 9.8 93 0.6 E 7 11 4 6 1024.4 1023.0 1.8
25/12:00pm 10.9 10.1 9.7 92 0.6 E 4 11 2 6 1024.6 1023.2 1.4
25/11:30am 10.5 7.9 9.4 93 0.6 ENE 13 15 7 8 1024.8 1023.4 1.2
25/11:28am 10.5 7.9 9.4 93 0.6 ENE 13 15 7 8 1024.9 1023.5 1.0
25/11:00am 10.8 9.1 9.7 93 0.6 E 9 11 5 6 1025.1 1023.7 1.0
25/10:30am 10.6 8.1 9.7 94 0.5 ENE 13 17 7 9 1025.4 1024.1 1.0
25/10:19am 10.4 8.2 9.3 93 0.6 ENE 11 15 6 8 1025.6 1024.3 1.0
25/10:01am 10.4 8.2 9.5 94 0.5 ENE 11 15 6 8 1025.4 1024.1 1.0
25/10:00am 10.3 7.7 9.4 94 0.5 ENE 13 15 7 8 1025.4 1024.1 1.0
25/09:30am 10.1 8.6 9.2 94 0.5 E 7 9 4 5 1025.9 1024.5 0.6
25/09:26am 10.1 8.8 9.2 94 0.5 E 6 9 3 5 1025.9 1024.5 0.4

Other Formats:

Comma delimited format used in spreadsheet applications
http://www.bom.gov.au/fwo/IDW60801/IDW60801.99312.axf

JavaScript Object Notation format (JSON) in row-major order
http://www.bom.gov.au/fwo/IDW60801/IDW60801.99312.json